Time;durP1;ratioP1;P1;durP2;ratioP2;P2;SDS_P1;SDS_P2;PMS_P1;PMS_P2;Temp;Humidity;BMP_temperature;BMP_pressure;BME280_temperature;BME280_humidity;BME280_pressure;Samples;Min_cycle;Max_cycle;Signal;HPM_P1;HPM_P2
2023/11/15 00:01:33;;;;;;;6.47;3.35;;;;;;;5.59;80.21;94414.34;5112353;28;20035;-63
2023/11/15 00:03:58;;;;;;;7.85;2.97;;;;;;;5.53;80.24;94398.50;5113214;28;20031;-63
2023/11/15 00:06:23;;;;;;;7.43;3.08;;;;;;;5.53;80.28;94421.69;5104672;28;20036;-63
2023/11/15 00:08:49;;;;;;;7.70;3.15;;;;;;;5.52;80.26;94397.69;5102867;28;20023;-63
2023/11/15 00:11:18;;;;;;;6.75;3.50;;;;;;;5.63;80.60;94394.34;5113458;28;20031;-63
2023/11/15 00:13:46;;;;;;;6.57;3.75;;;;;;;5.58;80.50;94424.78;5094956;28;20039;-63
2023/11/15 00:16:11;;;;;;;8.40;3.13;;;;;;;5.28;80.66;94364.13;5110608;28;20039;-63
2023/11/15 00:18:37;;;;;;;6.72;3.28;;;;;;;5.28;80.92;94414.81;5113006;27;20102;-63
2023/11/15 00:21:03;;;;;;;6.28;3.25;;;;;;;5.51;80.80;94398.59;5113297;28;20028;-63
2023/11/15 00:23:29;;;;;;;7.35;3.67;;;;;;;5.58;80.77;94417.03;5111463;28;20036;-63
2023/11/15 00:25:54;;;;;;;5.50;3.10;;;;;;;5.83;80.28;94411.81;5102940;28;20042;-63
2023/11/15 00:28:20;;;;;;;6.55;2.88;;;;;;;5.80;79.87;94365.63;5093536;28;20032;-63
2023/11/15 00:30:45;;;;;;;5.95;3.03;;;;;;;5.64;80.06;94406.31;5113433;28;20101;-64
2023/11/15 00:33:11;;;;;;;7.10;4.10;;;;;;;5.76;80.10;94368.53;5108951;28;20039;-63
2023/11/15 00:35:36;;;;;;;6.43;3.65;;;;;;;5.57;80.61;94348.38;5111881;28;20028;-63
2023/11/15 00:38:03;;;;;;;7.50;3.53;;;;;;;5.60;80.21;94384.28;5128848;27;20515;-63
2023/11/15 00:40:29;;;;;;;5.95;3.35;;;;;;;5.80;80.15;94363.06;5111295;28;20036;-63
2023/11/15 00:42:54;;;;;;;6.32;3.67;;;;;;;5.88;79.22;94382.28;5110839;28;20391;-63
2023/11/15 00:45:24;;;;;;;6.65;3.67;;;;;;;5.94;79.05;94350.97;5111740;28;20047;-63
2023/11/15 00:47:49;;;;;;;11.00;5.43;;;;;;;6.11;78.76;94393.59;5110826;28;20039;-63
2023/11/15 00:50:14;;;;;;;12.00;5.30;;;;;;;6.10;78.70;94387.63;5111034;28;20035;-63
2023/11/15 00:52:40;;;;;;;7.07;4.03;;;;;;;5.95;78.76;94399.00;5111223;28;20050;-63
2023/11/15 00:55:06;;;;;;;7.07;3.72;;;;;;;6.03;78.59;94373.50;5112514;28;20024;-64
2023/11/15 00:57:32;;;;;;;9.43;3.80;;;;;;;6.06;78.37;94334.59;5077060;28;20035;-64
2023/11/15 00:59:57;;;;;;;5.63;3.33;;;;;;;6.19;78.13;94384.38;5109396;28;20020;-63
2023/11/15 01:02:26;;;;;;;6.93;3.65;;;;;;;6.23;77.86;94392.69;5113102;28;20438;-63
2023/11/15 01:04:52;;;;;;;6.53;3.50;;;;;;;6.28;77.93;94390.59;5110856;28;20450;-63
2023/11/15 01:07:17;;;;;;;5.25;3.15;;;;;;;6.24;77.81;94371.13;5111059;28;20031;-63
2023/11/15 01:09:43;;;;;;;6.28;3.72;;;;;;;6.19;77.60;94397.25;5109341;28;20035;-64
2023/11/15 01:12:08;;;;;;;7.60;3.60;;;;;;;6.21;77.29;94374.78;5109730;28;20039;-63
2023/11/15 01:14:34;;;;;;;5.78;3.50;;;;;;;6.21;78.11;94397.97;5110264;28;20482;-63
2023/11/15 01:16:59;;;;;;;7.07;3.97;;;;;;;6.29;77.59;94363.06;5112553;28;20507;-63
2023/11/15 01:19:25;;;;;;;6.45;3.58;;;;;;;6.26;77.69;94362.34;5106407;28;20502;-63
2023/11/15 01:21:50;;;;;;;6.35;3.63;;;;;;;6.02;78.04;94358.97;5105767;28;20039;-63
2023/11/15 01:24:16;;;;;;;8.07;4.13;;;;;;;6.10;77.95;94367.00;5111808;28;20092;-63
2023/11/15 01:26:42;;;;;;;7.45;3.97;;;;;;;6.15;77.53;94346.00;5110992;28;20471;-63
2023/11/15 01:29:07;;;;;;;6.88;3.80;;;;;;;6.10;77.26;94336.03;5096844;28;20493;-63
2023/11/15 01:31:33;;;;;;;8.18;5.13;;;;;;;5.73;78.39;94346.38;5112085;28;20027;-63
2023/11/15 01:33:58;;;;;;;6.38;4.53;;;;;;;5.78;78.49;94343.47;5110208;28;20104;-63
2023/11/15 01:36:24;;;;;;;7.65;4.82;;;;;;;5.80;79.19;94349.34;5108877;28;20040;-63
2023/11/15 01:38:50;;;;;;;7.95;4.00;;;;;;;5.91;78.77;94335.69;5110500;28;20036;-63
2023/11/15 01:41:16;;;;;;;11.23;5.38;;;;;;;5.96;78.28;94333.63;5110315;28;20054;-63
2023/11/15 01:43:42;;;;;;;7.47;4.40;;;;;;;6.02;78.31;94364.94;5091278;28;20048;-63
2023/11/15 01:46:07;;;;;;;6.80;4.03;;;;;;;6.03;78.59;94361.44;5109295;28;20051;-63
2023/11/15 01:48:33;;;;;;;9.40;3.75;;;;;;;6.09;78.63;94339.53;5093626;28;20059;-63
2023/11/15 01:50:59;;;;;;;7.18;4.15;;;;;;;5.97;78.55;94348.16;5076786;28;20032;-63
2023/11/15 01:53:24;;;;;;;6.65;3.70;;;;;;;5.96;78.43;94343.94;5109622;28;20039;-63
2023/11/15 01:55:50;;;;;;;6.03;3.80;;;;;;;6.21;78.33;94359.28;5108816;28;20035;-63
2023/11/15 01:58:15;;;;;;;5.93;3.53;;;;;;;6.01;78.12;94331.53;5089791;28;20044;-63
2023/11/15 02:00:41;;;;;;;6.85;3.97;;;;;;;6.04;78.39;94339.88;5109804;28;20038;-63
2023/11/15 02:03:06;;;;;;;6.15;3.58;;;;;;;6.06;78.86;94321.72;5111333;28;20032;-63
2023/11/15 02:05:31;;;;;;;6.70;3.78;;;;;;;6.07;78.59;94291.56;5108740;28;20032;-63
2023/11/15 02:07:57;;;;;;;8.45;3.85;;;;;;;6.10;78.40;94325.72;5110105;28;20423;-63
2023/11/15 02:10:22;;;;;;;6.68;3.55;;;;;;;6.12;79.10;94326.41;5092695;28;20539;-63
2023/11/15 02:12:48;;;;;;;6.15;3.63;;;;;;;6.26;78.36;94325.41;5087674;28;20493;-63
2023/11/15 02:15:15;;;;;;;7.80;3.88;;;;;;;6.12;77.73;94233.56;5109376;28;20031;-63
2023/11/15 02:17:48;;;;;;;7.28;4.00;;;;;;;6.32;77.95;94282.84;5111333;28;20072;-63
2023/11/15 02:20:16;;;;;;;6.43;3.63;;;;;;;6.42;78.50;94256.25;5089478;28;20024;-63
2023/11/15 02:22:47;;;;;;;7.50;3.78;;;;;;;6.34;78.52;94281.00;5107517;28;20413;-63
2023/11/15 02:25:13;;;;;;;7.65;4.30;;;;;;;6.54;77.71;94236.44;5109829;28;20024;-63
2023/11/15 02:27:39;;;;;;;8.15;4.00;;;;;;;6.40;77.88;94241.81;5109590;28;20039;-63
2023/11/15 02:30:05;;;;;;;7.95;4.18;;;;;;;6.55;77.68;94247.59;5109325;28;20028;-64
2023/11/15 02:32:31;;;;;;;6.88;4.50;;;;;;;6.63;77.26;94240.91;5108372;28;20053;-63
2023/11/15 02:34:56;;;;;;;8.50;4.70;;;;;;;6.56;77.29;94262.94;5109196;28;20035;-63
2023/11/15 02:37:22;;;;;;;7.80;4.97;;;;;;;6.42;78.15;94233.03;5092979;28;20024;-63
2023/11/15 02:39:47;;;;;;;8.48;5.15;;;;;;;6.46;77.83;94249.09;5091396;28;20020;-63
2023/11/15 02:42:13;;;;;;;6.57;4.25;;;;;;;6.42;78.36;94209.00;5092593;28;20067;-63
2023/11/15 02:44:38;;;;;;;9.25;4.38;;;;;;;6.34;78.65;94230.22;5110505;28;20059;-63
2023/11/15 02:47:04;;;;;;;8.20;4.70;;;;;;;6.67;77.32;94241.50;5111189;28;20024;-63
2023/11/15 02:49:29;;;;;;;7.72;5.13;;;;;;;6.43;78.27;94259.66;5112697;28;20039;-63
2023/11/15 02:51:54;;;;;;;10.98;5.93;;;;;;;6.44;78.12;94261.31;5115366;28;20494;-63
2023/11/15 02:54:20;;;;;;;8.68;6.45;;;;;;;6.35;78.14;94242.19;5114695;28;20039;-63
2023/11/15 02:56:45;;;;;;;12.05;6.25;;;;;;;6.21;78.63;94283.66;5096633;28;20034;-63
2023/11/15 02:59:11;;;;;;;9.15;6.38;;;;;;;6.41;78.16;94261.53;5092475;28;20032;-63
2023/11/15 03:01:45;;;;;;;10.65;5.65;;;;;;;6.21;78.42;94256.13;5111875;28;20059;-63
2023/11/15 03:04:10;;;;;;;11.02;5.85;;;;;;;6.00;79.43;94257.69;5079607;28;20028;-63
2023/11/15 03:06:36;;;;;;;11.93;8.10;;;;;;;6.34;78.67;94281.00;5114169;28;20049;-63
2023/11/15 03:09:01;;;;;;;11.02;7.32;;;;;;;6.26;78.32;94227.38;5112888;28;20027;-63
2023/11/15 03:11:26;;;;;;;13.77;7.78;;;;;;;6.09;79.05;94285.38;5113430;28;20035;-63
2023/11/15 03:13:52;;;;;;;11.43;5.72;;;;;;;6.21;78.28;94269.00;5113088;28;20031;-63
2023/11/15 03:16:17;;;;;;;8.43;5.30;;;;;;;6.19;78.08;94224.44;5114648;28;20096;-63
2023/11/15 03:18:43;;;;;;;11.65;6.40;;;;;;;5.98;79.34;94259.56;5113639;28;20027;-63
2023/11/15 03:21:08;;;;;;;9.63;6.38;;;;;;;6.25;78.57;94295.41;5114515;28;20443;-63
2023/11/15 03:23:33;;;;;;;9.63;5.13;;;;;;;6.09;78.72;94241.53;5112815;27;20043;-63
2023/11/15 03:25:59;;;;;;;12.50;6.18;;;;;;;5.91;79.13;94251.44;5114512;28;20028;-63
2023/11/15 03:28:24;;;;;;;12.50;6.65;;;;;;;6.00;79.38;94268.81;5129571;27;20032;-64
2023/11/15 03:30:50;;;;;;;11.95;6.22;;;;;;;6.12;78.29;94256.78;5113802;28;20520;-63
2023/11/15 03:33:15;;;;;;;11.45;5.88;;;;;;;5.86;79.97;94219.19;5113069;27;20054;-63
2023/11/15 03:35:40;;;;;;;11.70;6.80;;;;;;;5.87;79.85;94285.28;5095700;28;20020;-63
2023/11/15 03:38:06;;;;;;;9.93;5.90;;;;;;;5.96;79.84;94205.53;5114072;28;20036;-63
2023/11/15 03:40:31;;;;;;;9.32;6.22;;;;;;;5.70;80.16;94225.47;5111206;28;20039;-63
2023/11/15 03:42:56;;;;;;;7.03;5.07;;;;;;;6.15;79.49;94228.19;5112557;28;20027;-63
2023/11/15 03:45:22;;;;;;;8.13;5.20;;;;;;;6.11;79.55;94223.38;5092710;28;20052;-63
2023/11/15 03:47:47;;;;;;;9.43;5.55;;;;;;;6.22;79.40;94211.31;5064907;28;20101;-63
2023/11/15 03:50:13;;;;;;;9.27;5.60;;;;;;;6.41;78.29;94238.31;5089356;28;20020;-63
2023/11/15 03:52:38;;;;;;;13.05;5.35;;;;;;;6.45;77.90;94181.19;5093663;28;20031;-63
2023/11/15 03:55:04;;;;;;;10.45;5.65;;;;;;;6.59;77.58;94221.44;5092419;28;20039;-63
2023/11/15 03:57:29;;;;;;;8.40;4.90;;;;;;;6.44;78.27;94248.41;5093689;28;20644;-64
2023/11/15 03:59:58;;;;;;;8.57;4.65;;;;;;;6.52;78.38;94248.66;5104082;28;20394;-63
2023/11/15 04:02:24;;;;;;;6.88;3.97;;;;;;;6.60;77.45;94163.72;5113881;28;20035;-62
2023/11/15 04:04:50;;;;;;;8.13;4.03;;;;;;;6.57;78.13;94204.41;5092381;28;20032;-63
2023/11/15 04:07:16;;;;;;;8.57;4.55;;;;;;;6.52;78.42;94228.00;5090868;28;20145;-62
2023/11/15 04:09:42;;;;;;;9.75;5.10;;;;;;;6.65;78.45;94212.38;5107770;27;20039;-63
2023/11/15 04:12:07;;;;;;;9.10;5.63;;;;;;;6.88;77.78;94224.34;5111346;28;20492;-63
2023/11/15 04:14:34;;;;;;;8.88;4.78;;;;;;;6.94;76.79;94182.56;5109428;28;20035;-62
2023/11/15 04:17:00;;;;;;;6.03;4.03;;;;;;;7.08;76.54;94172.91;5088248;28;20050;-62
2023/11/15 04:19:25;;;;;;;8.57;5.30;;;;;;;7.22;76.22;94197.66;5091578;28;20522;-63
2023/11/15 04:21:51;;;;;;;4.55;3.30;;;;;;;7.23;76.66;94189.75;5108761;28;20024;-63
2023/11/15 04:24:20;;;;;;;7.43;4.57;;;;;;;7.30;76.49;94190.94;5108887;27;20621;-63
2023/11/15 04:26:45;;;;;;;9.20;5.38;;;;;;;7.41;75.56;94164.22;5105659;28;20039;-63
2023/11/15 04:29:12;;;;;;;8.15;5.65;;;;;;;7.35;75.86;94216.38;5090595;28;20027;-63
2023/11/15 04:31:37;;;;;;;8.98;5.25;;;;;;;7.37;75.98;94183.50;5107035;28;20045;-63
2023/11/15 04:34:03;;;;;;;10.55;6.20;;;;;;;7.37;75.72;94184.31;5106024;28;20047;-63
2023/11/15 04:36:32;;;;;;;8.50;4.32;;;;;;;7.33;76.05;94151.09;5104838;28;20440;-63
2023/11/15 04:38:58;;;;;;;12.93;5.72;;;;;;;7.24;76.80;94169.91;5108117;28;20039;-63
2023/11/15 04:41:23;;;;;;;11.13;6.20;;;;;;;7.38;75.95;94151.53;5091926;28;20393;-63
2023/11/15 04:43:49;;;;;;;30.63;24.58;;;;;;;7.47;76.51;94174.06;5090558;28;20069;-63
2023/11/15 04:46:14;;;;;;;15.73;13.13;;;;;;;7.48;76.47;94146.47;5109653;28;20405;-63
2023/11/15 04:48:40;;;;;;;13.32;9.43;;;;;;;7.56;76.20;94170.72;5089181;28;20505;-63
2023/11/15 04:51:05;;;;;;;14.98;9.35;;;;;;;7.61;75.41;94147.91;5108012;28;20046;-62
2023/11/15 04:53:31;;;;;;;7.50;4.38;;;;;;;7.58;76.22;94155.94;5107391;28;20100;-63
2023/11/15 04:55:57;;;;;;;7.43;4.75;;;;;;;7.39;77.21;94119.59;5108947;28;20019;-63
2023/11/15 04:58:22;;;;;;;6.32;4.18;;;;;;;7.43;76.49;94117.56;5105836;28;20098;-62
2023/11/15 05:00:48;;;;;;;8.40;5.38;;;;;;;7.49;76.43;94133.41;5107433;28;20030;-63
2023/11/15 05:03:13;;;;;;;10.70;6.40;;;;;;;7.36;76.42;94148.28;5107131;28;20031;-63
2023/11/15 05:05:39;;;;;;;6.55;4.20;;;;;;;7.51;76.75;94113.41;5072888;28;20027;-62
2023/11/15 05:08:04;;;;;;;7.45;5.28;;;;;;;7.22;77.52;94141.63;5107281;28;20486;-63
2023/11/15 05:10:30;;;;;;;14.57;12.93;;;;;;;7.28;77.00;94114.47;5108113;28;20027;-63
2023/11/15 05:12:55;;;;;;;12.15;9.82;;;;;;;7.40;76.45;94128.97;5107243;28;20028;-63
2023/11/15 05:15:21;;;;;;;10.57;6.47;;;;;;;7.42;76.41;94127.09;5107384;28;20032;-62
2023/11/15 05:17:46;;;;;;;6.80;3.72;;;;;;;7.57;75.45;94099.16;5105616;28;20467;-63
2023/11/15 05:20:12;;;;;;;7.03;3.10;;;;;;;7.61;75.47;94106.56;5090140;28;20031;-62
2023/11/15 05:22:37;;;;;;;7.13;4.90;;;;;;;7.69;75.24;94112.84;5108407;28;20914;-62
2023/11/15 05:25:05;;;;;;;10.07;6.18;;;;;;;7.75;74.42;94120.13;5107987;28;20565;-62
2023/11/15 05:27:31;;;;;;;12.75;6.75;;;;;;;7.69;74.81;94099.91;5105755;28;20038;-63
2023/11/15 05:29:56;;;;;;;11.38;6.88;;;;;;;7.59;75.26;94121.38;5095616;28;20019;-62
2023/11/15 05:32:22;;;;;;;9.75;6.45;;;;;;;7.50;74.68;94073.03;5107233;28;21097;-63
2023/11/15 05:34:47;;;;;;;9.38;6.47;;;;;;;7.45;75.24;94131.19;5107279;28;20027;-63
2023/11/15 05:37:13;;;;;;;16.67;9.70;;;;;;;7.39;75.03;94115.25;5105081;28;20065;-63
2023/11/15 05:39:38;;;;;;;12.15;7.70;;;;;;;7.31;75.31;94109.06;5108481;28;20486;-62
2023/11/15 05:42:05;;;;;;;11.07;6.10;;;;;;;7.34;74.98;94078.63;5107901;28;20035;-63
2023/11/15 05:44:31;;;;;;;9.45;6.22;;;;;;;7.18;75.51;94116.16;5106095;28;20055;-63
2023/11/15 05:46:56;;;;;;;16.48;12.23;;;;;;;7.19;75.40;94100.56;5088594;28;20027;-63
2023/11/15 05:49:22;;;;;;;14.18;7.22;;;;;;;7.01;75.95;94133.00;5107491;28;20031;-62
2023/11/15 05:51:47;;;;;;;11.48;9.07;;;;;;;6.94;76.82;94119.78;5108263;28;20383;-63
2023/11/15 05:54:12;;;;;;;12.70;7.97;;;;;;;6.58;78.13;94072.69;5107307;28;20031;-62
2023/11/15 05:56:38;;;;;;;14.25;8.93;;;;;;;6.40;78.20;94125.72;5105900;28;20036;-62
2023/11/15 05:59:03;;;;;;;10.82;7.30;;;;;;;6.65;78.27;94075.59;5106716;28;20024;-63
2023/11/15 06:01:29;;;;;;;12.02;7.40;;;;;;;6.69;77.95;94087.34;5087310;28;20386;-63
2023/11/15 06:03:54;;;;;;;15.82;10.52;;;;;;;6.62;77.74;94040.53;5105316;27;20882;-64
2023/11/15 06:06:20;;;;;;;15.57;8.40;;;;;;;6.84;78.16;94103.34;5106941;28;20038;-64
2023/11/15 06:08:46;;;;;;;16.65;9.90;;;;;;;6.68;77.89;94071.00;5105159;28;20039;-64
2023/11/15 06:11:12;;;;;;;17.48;12.57;;;;;;;6.86;77.21;94076.47;5106313;28;20027;-63
2023/11/15 06:13:37;;;;;;;15.50;9.13;;;;;;;6.74;77.02;94086.94;5106775;28;20044;-62
2023/11/15 06:16:07;;;;;;;18.70;12.77;;;;;;;6.89;77.82;94140.78;5088946;28;20028;-63
2023/11/15 06:18:32;;;;;;;11.63;7.05;;;;;;;6.75;78.35;94060.22;5104566;28;20028;-63
2023/11/15 06:20:58;;;;;;;9.55;4.95;;;;;;;6.82;78.42;94082.00;5089512;28;20426;-63
2023/11/15 06:23:23;;;;;;;12.88;7.68;;;;;;;7.05;77.73;94135.22;5087849;28;20028;-65
2023/11/15 06:25:49;;;;;;;10.25;6.88;;;;;;;7.11;77.46;94082.25;5106120;28;20497;-63
2023/11/15 06:28:16;;;;;;;5.55;3.90;;;;;;;7.63;76.01;94098.66;5105430;28;20112;-64
2023/11/15 06:30:41;;;;;;;5.22;3.47;;;;;;;8.22;74.30;94081.69;5105576;28;20031;-63
2023/11/15 06:33:07;;;;;;;4.68;2.60;;;;;;;8.53;73.18;94123.91;5122267;27;20140;-64
2023/11/15 06:35:32;;;;;;;8.20;5.15;;;;;;;8.60;73.28;94111.25;5105480;28;20023;-64
2023/11/15 06:38:01;;;;;;;11.82;7.68;;;;;;;8.61;73.26;94092.19;5104957;28;20073;-64
2023/11/15 06:40:26;;;;;;;11.02;6.85;;;;;;;8.53;73.91;94108.38;5107290;28;20035;-64
2023/11/15 06:42:52;;;;;;;14.10;8.10;;;;;;;8.76;73.20;94106.41;5106833;28;20039;-64
2023/11/15 06:45:17;;;;;;;18.73;11.43;;;;;;;8.59;73.58;94120.81;5106799;28;20040;-64
2023/11/15 06:47:43;;;;;;;17.15;9.98;;;;;;;8.53;73.16;94121.34;5105878;28;20066;-64
2023/11/15 06:50:09;;;;;;;20.33;9.70;;;;;;;8.38;72.86;94091.53;5106828;28;20019;-63
2023/11/15 06:52:40;;;;;;;15.27;10.07;;;;;;;8.21;73.88;94113.69;5105446;28;20421;-65
2023/11/15 06:55:11;;;;;;;17.63;9.25;;;;;;;8.37;74.21;94115.78;5105592;28;20417;-64
2023/11/15 06:57:37;;;;;;;;;;;;;;;8.37;73.54;94121.78;5104708;28;20122;-64
2023/11/15 07:00:06;;;;;;;19.40;11.02;;;;;;;8.13;74.85;94132.44;5105603;28;19994;-64
2023/11/15 07:02:31;;;;;;;19.70;13.98;;;;;;;8.39;73.71;94109.56;5088750;28;20454;-64
2023/11/15 07:04:57;;;;;;;20.95;11.23;;;;;;;8.56;73.16;94133.19;5072551;28;20039;-64
2023/11/15 07:07:22;;;;;;;14.13;9.02;;;;;;;8.40;73.84;94108.59;5106107;28;20027;-63
2023/11/15 07:09:48;;;;;;;13.60;9.15;;;;;;;8.49;73.83;94119.94;5106663;28;20028;-64
2023/11/15 07:12:13;;;;;;;15.20;9.02;;;;;;;8.50;74.21;94096.53;5106092;28;20031;-63
2023/11/15 07:14:40;;;;;;;9.68;4.63;;;;;;;8.92;73.27;94085.16;5105723;28;20039;-63
2023/11/15 07:17:07;;;;;;;8.70;4.75;;;;;;;9.11;73.75;94147.38;5105697;28;20019;-64
2023/11/15 07:19:32;;;;;;;14.30;10.70;;;;;;;9.45;72.11;94138.41;5106391;28;20066;-63
2023/11/15 07:21:58;;;;;;;12.43;7.55;;;;;;;9.56;71.38;94105.34;5107309;28;20019;-63
2023/11/15 07:24:24;;;;;;;11.80;8.07;;;;;;;9.98;71.38;94143.94;5106658;28;20471;-64
2023/11/15 07:26:51;;;;;;;16.75;8.57;;;;;;;11.41;66.03;94100.19;5106964;28;20027;-64
2023/11/15 07:29:20;;;;;;;10.93;7.85;;;;;;;12.99;61.67;94155.72;5090512;28;20061;-64
2023/11/15 07:31:51;;;;;;;14.20;8.30;;;;;;;13.38;59.71;94096.81;5090711;28;20030;-64
2023/11/15 07:34:18;;;;;;;;;;;;;;;13.93;57.82;94138.91;5107335;28;20051;-64
2023/11/15 07:36:43;;;;;;;11.93;7.13;;;;;;;13.75;57.05;94081.66;5114137;27;19916;-64
2023/11/15 07:39:13;;;;;;;11.70;5.72;;;;;;;13.63;58.87;94117.72;5108327;28;20023;-64
2023/11/15 07:41:39;;;;;;;9.93;5.90;;;;;;;13.26;59.21;94087.69;5080853;28;20490;-67
2023/11/15 07:44:05;;;;;;;8.52;5.80;;;;;;;13.30;59.07;94083.78;5104381;28;20063;-65
2023/11/15 07:46:30;;;;;;;12.18;6.10;;;;;;;13.02;59.93;94067.56;5105895;28;20026;-66
2023/11/15 07:48:58;;;;;;;6.72;4.97;;;;;;;12.67;60.95;94128.53;5112993;28;20042;-67
2023/11/15 07:51:23;;;;;;;12.95;7.00;;;;;;;12.82;61.41;94116.53;5111223;27;20024;-65
2023/11/15 07:53:49;;;;;;;16.52;7.78;;;;;;;12.68;61.08;94119.75;5110440;28;20051;-66
2023/11/15 07:56:18;;;;;;;15.35;7.88;;;;;;;12.65;61.54;94114.84;5110891;28;20062;-65
2023/11/15 07:58:45;;;;;;;16.40;8.80;;;;;;;11.99;63.52;94085.03;5111012;28;20032;-66
2023/11/15 08:01:10;;;;;;;15.02;8.98;;;;;;;11.72;64.43;94122.38;5092558;28;20375;-65
2023/11/15 08:03:35;;;;;;;13.35;7.85;;;;;;;11.80;64.21;94117.25;5092696;28;20267;-65
2023/11/15 08:06:01;;;;;;;10.18;6.18;;;;;;;11.92;63.87;94118.66;5092273;28;20082;-65
2023/11/15 08:08:27;;;;;;;8.52;5.00;;;;;;;12.10;63.52;94129.03;5126255;27;20027;-65
2023/11/15 08:10:52;;;;;;;8.40;5.68;;;;;;;11.93;65.01;94070.84;5112897;28;20465;-65
2023/11/15 08:13:22;;;;;;;11.93;5.82;;;;;;;11.96;64.58;94140.81;5111616;28;20059;-66
2023/11/15 08:15:48;;;;;;;11.00;6.95;;;;;;;12.02;64.38;94113.38;5111886;28;20035;-66
2023/11/15 08:18:14;;;;;;;8.50;4.43;;;;;;;11.93;64.58;94088.25;5112506;28;20098;-65
2023/11/15 08:20:42;;;;;;;6.10;2.88;;;;;;;12.09;64.07;94137.81;5095383;28;20031;-65
2023/11/15 08:23:10;;;;;;;12.35;5.47;;;;;;;12.01;65.00;94138.59;5146037;27;20406;-65
2023/11/15 08:25:36;;;;;;;8.40;4.70;;;;;;;12.05;65.29;94111.25;5113558;27;20027;-65
2023/11/15 08:28:02;;;;;;;8.48;4.55;;;;;;;12.22;64.82;94145.22;5146300;27;20031;-65
2023/11/15 08:30:27;;;;;;;10.52;4.97;;;;;;;12.31;64.00;94133.88;5112298;28;20020;-65
2023/11/15 08:32:52;;;;;;;6.13;2.90;;;;;;;12.49;62.11;94119.00;5113272;28;20035;-65
2023/11/15 08:35:20;;;;;;;4.32;1.73;;;;;;;12.67;60.48;94128.53;5146486;27;20043;-65
2023/11/15 08:37:45;;;;;;;4.93;2.00;;;;;;;12.64;60.82;94139.25;5145846;27;20408;-65
2023/11/15 08:40:12;;;;;;;4.63;1.77;;;;;;;12.90;60.40;94123.59;5129148;27;20028;-65
2023/11/15 08:42:38;;;;;;;5.32;2.83;;;;;;;13.00;60.08;94118.22;5146228;27;20108;-65
2023/11/15 08:45:07;;;;;;;5.13;2.10;;;;;;;13.14;59.89;94122.81;5146035;27;20066;-65
2023/11/15 08:47:33;;;;;;;8.10;5.13;;;;;;;13.18;59.79;94135.41;5128905;27;20035;-66
2023/11/15 08:49:59;;;;;;;26.17;12.63;;;;;;;13.19;59.81;94108.31;5111723;28;20027;-66
2023/11/15 08:52:24;;;;;;;6.28;2.85;;;;;;;13.39;58.85;94124.53;5113491;28;20506;-65
2023/11/15 08:54:50;;;;;;;5.30;1.90;;;;;;;13.24;59.46;94146.16;5112762;28;20405;-66
2023/11/15 08:57:15;;;;;;;4.65;2.40;;;;;;;13.49;58.98;94154.91;5111958;28;20031;-65
2023/11/15 08:59:47;;;;;;;5.22;2.35;;;;;;;13.45;58.97;94164.00;5111911;28;20452;-65
2023/11/15 09:02:15;;;;;;;10.00;4.75;;;;;;;13.54;58.99;94160.41;5128596;27;20134;-65
2023/11/15 09:04:40;;;;;;;5.10;2.63;;;;;;;13.62;58.25;94157.81;5111496;28;20039;-65
2023/11/15 09:07:07;;;;;;;6.07;2.22;;;;;;;13.59;58.51;94165.97;5112708;28;20255;-65
2023/11/15 09:09:40;;;;;;;4.30;2.13;;;;;;;13.67;58.46;94162.56;5112587;28;20028;-65
2023/11/15 09:12:08;;;;;;;5.95;2.45;;;;;;;13.68;58.10;94157.19;5113107;28;20032;-65
2023/11/15 09:14:35;;;;;;;5.40;2.80;;;;;;;13.61;59.09;94164.84;5145872;27;20164;-66
2023/11/15 09:17:01;;;;;;;5.57;2.60;;;;;;;13.70;58.17;94151.81;5145553;27;20114;-65
2023/11/15 09:19:28;;;;;;;6.03;3.20;;;;;;;13.63;58.85;94175.94;5111267;28;20061;-66
2023/11/15 09:21:54;;;;;;;6.72;3.17;;;;;;;13.75;58.23;94176.44;5111370;28;20035;-65
2023/11/15 09:24:24;;;;;;;7.25;2.95;;;;;;;13.71;58.76;94195.22;5112350;28;20073;-65
2023/11/15 09:26:50;;;;;;;6.07;2.70;;;;;;;13.33;59.39;94210.44;5144352;27;20059;-66
2023/11/15 09:29:15;;;;;;;8.68;3.50;;;;;;;13.23;59.71;94217.53;5128172;27;20406;-65
2023/11/15 09:31:43;;;;;;;6.55;2.35;;;;;;;13.40;59.33;94204.44;5145508;27;20497;-65
2023/11/15 09:34:11;;;;;;;4.97;3.15;;;;;;;13.36;59.29;94223.16;5127512;27;20039;-65
2023/11/15 09:36:36;;;;;;;5.57;3.00;;;;;;;13.33;59.76;94239.94;5144798;27;20396;-65
2023/11/15 09:39:03;;;;;;;9.43;3.88;;;;;;;13.31;60.05;94254.13;5127984;27;20525;-65
2023/11/15 09:41:30;;;;;;;9.57;4.10;;;;;;;13.28;60.53;94265.69;5112358;28;20034;-65
2023/11/15 09:43:55;;;;;;;8.93;4.60;;;;;;;13.25;61.17;94276.41;5127584;27;20069;-66
2023/11/15 09:46:21;;;;;;;5.68;3.08;;;;;;;13.14;63.53;94287.09;5127969;27;20566;-65
2023/11/15 09:48:54;;;;;;;6.05;3.53;;;;;;;12.93;64.13;94274.47;5127720;27;20028;-65
2023/11/15 09:51:22;;;;;;;7.32;3.38;;;;;;;12.72;67.49;94300.88;5126767;27;20058;-65
2023/11/15 09:53:51;;;;;;;7.45;3.80;;;;;;;12.67;68.92;94308.31;5111696;28;20035;-65
2023/11/15 09:56:16;;;;;;;6.03;3.45;;;;;;;12.45;70.45;94317.44;5112021;28;20039;-65
2023/11/15 09:58:41;;;;;;;8.32;4.53;;;;;;;12.08;73.54;94295.78;5110018;28;20077;-65
2023/11/15 10:01:08;;;;;;;15.45;8.68;;;;;;;12.19;74.54;94323.41;5127713;27;20077;-65
2023/11/15 10:03:43;;;;;;;6.15;3.85;;;;;;;12.25;75.03;94301.97;5111654;28;20024;-65
2023/11/15 10:06:08;;;;;;;7.25;4.07;;;;;;;12.17;75.91;94308.88;5110410;28;20053;-65
2023/11/15 10:08:49;;;;;;;8.95;4.63;;;;;;;11.96;76.87;94319.59;5110268;28;20035;-65
2023/11/15 10:11:15;;;;;;;7.97;4.40;;;;;;;12.19;78.34;94317.38;5111505;28;20096;-65
2023/11/15 10:13:40;;;;;;;7.35;4.40;;;;;;;11.85;78.33;94294.56;5127272;27;20038;-65
2023/11/15 10:16:30;;;;;;;8.07;4.70;;;;;;;11.84;79.48;94318.97;5093348;28;20023;-65
2023/11/15 10:18:56;;;;;;;10.10;4.65;;;;;;;11.73;79.40;94320.00;5111497;28;20052;-65
2023/11/15 10:21:22;;;;;;;8.23;4.32;;;;;;;11.67;79.56;94337.94;5111395;28;20537;-65
2023/11/15 10:23:48;;;;;;;7.22;4.80;;;;;;;11.60;79.82;94328.13;5144162;27;20040;-65
2023/11/15 10:26:14;;;;;;;7.38;3.97;;;;;;;11.40;80.32;94350.00;5127215;27;20030;-65
2023/11/15 10:28:39;;;;;;;6.47;4.38;;;;;;;11.53;79.85;94350.50;5127200;27;20036;-65
2023/11/15 10:31:18;;;;;;;7.10;4.55;;;;;;;11.29;80.54;94361.38;5110063;28;20459;-66
2023/11/15 10:33:50;;;;;;;6.82;5.18;;;;;;;11.32;80.26;94361.09;5110050;28;20063;-68
2023/11/15 10:36:21;;;;;;;9.13;4.57;;;;;;;11.27;80.74;94363.31;5142623;27;20035;-65
2023/11/15 10:38:51;;;;;;;6.90;4.35;;;;;;;11.08;81.55;94382.38;5126428;28;20036;-65
2023/11/15 10:41:24;;;;;;;6.40;3.40;;;;;;;10.99;82.62;94391.03;5126580;28;20118;-65
2023/11/15 10:43:51;;;;;;;4.75;3.10;;;;;;;10.85;82.73;94383.66;5143019;27;20083;-65
2023/11/15 10:46:23;;;;;;;6.38;2.95;;;;;;;10.82;83.47;94387.34;5127018;28;20039;-65
2023/11/15 10:48:49;;;;;;;22.77;14.05;;;;;;;10.63;84.25;94401.16;5126203;28;20526;-65
2023/11/15 10:51:19;;;;;;;6.68;4.03;;;;;;;10.72;84.24;94397.75;5127097;28;20032;-65
2023/11/15 10:53:45;;;;;;;6.75;3.60;;;;;;;10.51;84.24;94389.28;5126668;28;20054;-66
2023/11/15 10:56:13;;;;;;;5.68;2.53;;;;;;;10.39;84.42;94395.56;5126991;28;20470;-65
2023/11/15 10:58:39;;;;;;;6.05;2.40;;;;;;;10.43;83.63;94399.53;5126592;28;20507;-65
2023/11/15 11:01:06;;;;;;;2.83;2.00;;;;;;;10.33;83.50;94394.31;5143972;27;20496;-66
2023/11/15 11:03:31;;;;;;;4.30;2.92;;;;;;;10.40;83.21;94389.44;5109742;28;20027;-65
2023/11/15 11:06:04;;;;;;;3.58;2.10;;;;;;;10.16;83.11;94408.75;5126966;28;20032;-65
2023/11/15 11:08:45;;;;;;;13.13;9.27;;;;;;;10.14;83.09;94415.88;5126572;28;20046;-66
2023/11/15 11:11:10;;;;;;;5.95;4.25;;;;;;;10.17;82.93;94413.03;5129854;27;20742;-65
2023/11/15 11:13:39;;;;;;;4.95;3.60;;;;;;;10.29;83.01;94413.75;5114809;28;20114;-65
2023/11/15 11:16:30;;;;;;;5.75;4.22;;;;;;;10.41;83.17;94409.25;5147174;27;20119;-66
2023/11/15 11:19:21;;;;;;;3.30;2.00;;;;;;;10.35;83.12;94399.41;5114786;28;20050;-65
2023/11/15 11:22:01;;;;;;;;;;;;;;;10.17;83.55;94404.38;5114281;28;20085;-66
2023/11/15 11:24:31;;;;;;;9.60;7.57;;;;;;;10.05;83.81;94411.47;5114724;28;19992;-66
2023/11/15 11:27:09;;;;;;;4.35;3.05;;;;;;;10.19;84.18;94413.69;5113757;28;20042;-65
2023/11/15 11:29:58;;;;;;;7.07;4.32;;;;;;;9.91;83.82;94378.94;5129201;27;20452;-65
2023/11/15 11:32:27;;;;;;;6.32;3.08;;;;;;;10.12;84.04;94406.59;5107900;27;20131;-66
2023/11/15 11:35:05;;;;;;;10.43;6.10;;;;;;;10.09;84.42;94407.66;5113194;28;20485;-65